Time;durP1;ratioP1;P1;durP2;ratioP2;P2;SDS_P1;SDS_P2;PMS_P1;PMS_P2;Temp;Humidity;BMP_temperature;BMP_pressure;BME280_temperature;BME280_humidity;BME280_pressure;Samples;Min_cycle;Max_cycle;Signal;HPM_P1;HPM_P2
2021/10/05 00:01:03;;;;;;;24.90;12.53;;;13.80;95.60;;;;;;5066705;28;20565;-75
2021/10/05 00:03:29;;;;;;;24.30;12.90;;;13.70;95.60;;;;;;5064440;28;20418;-77
2021/10/05 00:05:54;;;;;;;26.47;13.57;;;13.80;95.70;;;;;;5069041;28;20472;-77
2021/10/05 00:08:20;;;;;;;23.90;13.33;;;13.80;95.70;;;;;;5072825;28;20230;-75
2021/10/05 00:10:46;;;;;;;24.40;13.23;;;13.80;95.70;;;;;;5073908;28;20188;-77
2021/10/05 00:13:12;;;;;;;24.47;13.20;;;13.80;95.70;;;;;;5070373;28;20187;-75
2021/10/05 00:15:38;;;;;;;25.17;13.60;;;13.80;95.70;;;;;;5073872;28;20188;-74
2021/10/05 00:18:03;;;;;;;25.50;13.70;;;13.80;95.70;;;;;;5067866;28;20196;-76
2021/10/05 00:20:29;;;;;;;26.73;13.50;;;13.80;95.80;;;;;;5073923;28;20460;-76
2021/10/05 00:22:57;;;;;;;28.40;15.70;;;13.80;95.90;;;;;;5067906;28;20207;-76
2021/10/05 00:25:23;;;;;;;27.47;14.63;;;13.70;95.90;;;;;;5071850;28;20498;-76
2021/10/05 00:27:48;;;;;;;27.40;14.70;;;13.70;96.00;;;;;;5073360;28;20418;-75
2021/10/05 00:30:14;;;;;;;26.90;15.13;;;13.70;96.10;;;;;;5064429;28;20526;-75
2021/10/05 00:32:40;;;;;;;28.67;15.07;;;13.70;96.10;;;;;;5074479;28;20634;-75
2021/10/05 00:35:09;;;;;;;27.17;14.30;;;13.70;96.10;;;;;;5070765;28;20184;-75
2021/10/05 00:37:34;;;;;;;27.77;14.77;;;13.70;96.00;;;;;;5060015;28;20204;-76
2021/10/05 00:40:00;;;;;;;25.90;13.73;;;13.70;95.70;;;;;;5072136;28;20434;-75
2021/10/05 00:42:26;;;;;;;34.30;15.53;;;13.60;95.70;;;;;;5071608;28;20204;-75
2021/10/05 00:44:52;;;;;;;29.20;15.60;;;13.60;95.80;;;;;;5072321;28;20526;-76
2021/10/05 00:47:18;;;;;;;34.13;16.57;;;13.60;96.10;;;;;;5065349;28;20184;-75
2021/10/05 00:49:46;;;;;;;32.80;16.30;;;13.60;96.30;;;;;;5072889;28;20279;-76
2021/10/05 00:52:14;;;;;;;35.20;17.20;;;13.60;96.40;;;;;;5072641;28;20425;-76
2021/10/05 00:54:42;;;;;;;32.17;15.40;;;13.60;96.30;;;;;;5068483;28;20453;-76
2021/10/05 00:57:09;;;;;;;32.23;15.23;;;13.60;96.30;;;;;;5069901;28;20943;-75
2021/10/05 00:59:35;;;;;;;33.93;15.53;;;13.60;96.30;;;;;;5070959;28;20501;-75
2021/10/05 01:02:05;;;;;;;31.30;16.00;;;13.60;96.20;;;;;;5071474;28;20546;-75
2021/10/05 01:04:30;;;;;;;30.90;15.20;;;13.60;96.20;;;;;;5063479;28;20423;-74
2021/10/05 01:07:05;;;;;;;30.80;16.63;;;13.50;96.20;;;;;;5071715;28;20426;-75
2021/10/05 01:09:33;;;;;;;34.90;17.63;;;13.50;96.30;;;;;;5072148;28;20206;-75
2021/10/05 01:11:59;;;;;;;33.47;16.37;;;13.50;96.60;;;;;;5071939;28;20974;-76
2021/10/05 01:14:26;;;;;;;34.17;17.00;;;13.50;96.80;;;;;;5071532;28;20994;-75
2021/10/05 01:16:54;;;;;;;36.60;17.30;;;13.50;96.70;;;;;;5072392;28;20904;-76
2021/10/05 01:19:20;;;;;;;35.70;16.97;;;13.50;96.70;;;;;;5070591;28;20492;-75
2021/10/05 01:21:46;;;;;;;36.70;17.83;;;13.50;96.70;;;;;;5067672;28;20973;-75
2021/10/05 01:24:18;;;;;;;34.70;16.83;;;13.40;96.60;;;;;;5067513;28;20418;-76
2021/10/05 01:26:44;;;;;;;31.37;15.00;;;13.40;96.80;;;;;;5066128;28;21006;-76
2021/10/05 01:29:15;;;;;;;37.33;17.67;;;13.30;97.10;;;;;;5068973;28;20506;-75
2021/10/05 01:31:43;;;;;;;33.03;16.50;;;13.40;97.20;;;;;;5074806;28;20422;-76
2021/10/05 01:34:10;;;;;;;33.80;17.07;;;13.40;97.10;;;;;;5073057;28;20974;-75
2021/10/05 01:36:36;;;;;;;35.10;17.60;;;13.30;96.80;;;;;;5073948;28;20434;-77
2021/10/05 01:39:19;;;;;;;38.47;18.27;;;13.30;96.80;;;;;;5072337;28;20473;-76
2021/10/05 01:41:45;;;;;;;37.53;18.20;;;13.30;96.90;;;;;;5068354;28;20529;-76
2021/10/05 01:44:11;;;;;;;32.30;17.30;;;13.30;97.20;;;;;;5073685;28;20450;-78
2021/10/05 01:46:37;;;;;;;35.97;17.47;;;13.30;97.20;;;;;;5073711;28;20492;-76
2021/10/05 01:49:03;;;;;;;36.43;17.63;;;13.30;97.20;;;;;;5065707;28;20208;-75
2021/10/05 01:51:28;;;;;;;33.50;16.00;;;13.30;97.10;;;;;;5065652;28;20196;-76
2021/10/05 01:53:54;;;;;;;34.70;17.50;;;13.40;97.10;;;;;;5058214;28;20427;-76
2021/10/05 01:56:20;;;;;;;36.70;17.67;;;13.40;97.10;;;;;;5062103;28;20220;-76
2021/10/05 01:58:46;;;;;;;37.23;17.23;;;13.40;97.10;;;;;;5057920;28;20204;-75
2021/10/05 02:01:13;;;;;;;33.20;16.27;;;13.40;96.70;;;;;;5073557;28;20231;-77
2021/10/05 02:03:38;;;;;;;37.07;17.70;;;13.20;96.30;;;;;;5059726;28;20469;-75
2021/10/05 02:06:04;;;;;;;36.57;16.87;;;13.20;96.60;;;;;;5069984;28;20426;-74
2021/10/05 02:08:30;;;;;;;37.40;17.30;;;13.20;96.90;;;;;;5069689;28;20235;-75
2021/10/05 02:10:56;;;;;;;41.90;18.60;;;13.20;96.90;;;;;;5073468;28;20592;-74
2021/10/05 02:13:22;;;;;;;40.40;17.50;;;13.10;96.80;;;;;;5073847;28;20211;-75
2021/10/05 02:15:48;;;;;;;32.90;16.60;;;13.20;97.10;;;;;;5066253;28;20238;-77
2021/10/05 02:18:13;;;;;;;36.43;17.10;;;13.20;97.10;;;;;;5068180;28;20187;-77
2021/10/05 02:20:39;;;;;;;41.77;17.60;;;13.20;97.20;;;;;;5063489;28;21121;-74
2021/10/05 02:23:05;;;;;;;39.30;18.10;;;13.20;97.30;;;;;;5073342;28;20261;-75
2021/10/05 02:25:31;;;;;;;35.53;16.00;;;13.30;97.30;;;;;;5072989;28;20180;-74
2021/10/05 02:27:56;;;;;;;34.37;16.47;;;13.30;97.40;;;;;;5072983;28;20192;-75
2021/10/05 02:30:22;;;;;;;36.60;17.50;;;13.30;97.30;;;;;;5072867;28;20212;-75
2021/10/05 02:32:48;;;;;;;38.80;17.97;;;13.30;97.30;;;;;;5072636;28;20245;-75
2021/10/05 02:35:13;;;;;;;34.83;17.83;;;13.30;97.30;;;;;;5063262;28;20184;-75
2021/10/05 02:37:39;;;;;;;44.07;18.80;;;13.30;97.30;;;;;;5072744;28;20286;-75
2021/10/05 02:40:09;;;;;;;37.37;16.67;;;13.40;97.30;;;;;;5071983;28;20211;-77
2021/10/05 02:42:36;;;;;;;33.10;16.10;;;13.40;97.30;;;;;;5068787;28;20746;-75
2021/10/05 02:45:04;;;;;;;37.43;17.43;;;13.40;97.30;;;;;;5071435;28;20476;-75
2021/10/05 02:47:30;;;;;;;34.30;17.27;;;13.40;96.90;;;;;;5070626;28;20479;-75
2021/10/05 02:49:56;;;;;;;38.00;18.10;;;13.30;96.80;;;;;;5071072;28;20450;-76
2021/10/05 02:52:23;;;;;;;40.00;18.50;;;13.30;96.90;;;;;;5064629;28;20422;-75
2021/10/05 02:54:49;;;;;;;34.97;16.30;;;13.40;97.10;;;;;;5071050;28;20188;-76
2021/10/05 02:57:16;;;;;;;38.70;17.00;;;13.40;97.20;;;;;;5070953;28;20449;-75
2021/10/05 02:59:43;;;;;;;37.37;18.53;;;13.40;97.10;;;;;;5068976;28;20450;-76
2021/10/05 03:02:10;;;;;;;36.90;16.83;;;13.30;97.00;;;;;;5065341;28;20575;-75
2021/10/05 03:04:35;;;;;;;37.10;17.53;;;13.30;97.20;;;;;;5070969;28;20437;-75
2021/10/05 03:07:01;;;;;;;41.33;18.60;;;13.30;97.30;;;;;;5059758;28;20426;-75
2021/10/05 03:09:27;;;;;;;42.53;19.30;;;13.20;97.40;;;;;;5069311;28;20203;-76
2021/10/05 03:11:53;;;;;;;35.80;17.20;;;13.30;97.60;;;;;;5070904;28;20187;-76
2021/10/05 03:14:19;;;;;;;32.03;15.37;;;13.20;97.50;;;;;;5071113;28;20191;-76
2021/10/05 03:16:45;;;;;;;33.07;16.63;;;13.30;97.50;;;;;;5068510;28;20433;-76
2021/10/05 03:19:11;;;;;;;33.17;15.53;;;13.20;97.30;;;;;;5069990;28;20454;-76
2021/10/05 03:21:37;;;;;;;36.07;15.97;;;13.10;97.50;;;;;;5071386;28;20256;-76
2021/10/05 03:24:03;;;;;;;33.63;15.07;;;13.10;97.50;;;;;;5074804;28;20413;-76
2021/10/05 03:26:29;;;;;;;27.40;12.87;;;13.10;97.60;;;;;;5076772;28;20423;-77
2021/10/05 03:28:54;;;;;;;27.47;14.07;;;13.10;97.30;;;;;;5077800;28;20948;-77
2021/10/05 03:31:20;;;;;;;26.60;13.37;;;13.10;97.10;;;;;;5075520;28;20198;-76
2021/10/05 03:33:46;;;;;;;31.63;14.70;;;13.10;97.00;;;;;;5073327;28;20509;-76
2021/10/05 03:36:14;;;;;;;34.03;15.67;;;13.10;96.80;;;;;;5073612;28;20462;-76
2021/10/05 03:38:41;;;;;;;29.50;13.00;;;13.10;96.90;;;;;;5074693;28;21010;-76
2021/10/05 03:41:09;;;;;;;32.93;14.47;;;13.00;97.00;;;;;;5074071;28;20461;-75
2021/10/05 03:43:35;;;;;;;28.80;15.90;;;13.10;97.20;;;;;;5066024;28;20556;-77
2021/10/05 03:46:00;;;;;;;28.97;14.07;;;13.00;97.20;;;;;;5074601;28;20873;-73
2021/10/05 03:48:26;;;;;;;27.50;12.80;;;13.00;97.10;;;;;;5061517;28;20176;-77
2021/10/05 03:50:52;;;;;;;26.53;12.80;;;13.00;97.00;;;;;;5072737;28;20176;-76
2021/10/05 03:53:19;;;;;;;25.67;12.63;;;13.00;97.20;;;;;;5067153;28;20184;-75
2021/10/05 03:55:47;;;;;;;34.13;14.93;;;13.00;97.50;;;;;;5071871;28;20184;-76
2021/10/05 03:58:13;;;;;;;24.17;12.03;;;13.00;97.50;;;;;;5063545;28;20827;-75
2021/10/05 04:00:39;;;;;;;33.03;13.03;;;13.00;97.50;;;;;;5071522;28;20422;-77
2021/10/05 04:03:04;;;;;;;26.43;11.93;;;13.00;97.70;;;;;;5065831;28;20426;-76
2021/10/05 04:05:30;;;;;;;26.93;12.10;;;13.00;97.70;;;;;;5065150;28;20258;-75
2021/10/05 04:07:56;;;;;;;29.70;13.03;;;13.00;97.80;;;;;;5074211;28;20418;-76
2021/10/05 04:10:22;;;;;;;25.33;12.10;;;13.00;97.80;;;;;;5073916;28;20199;-75
2021/10/05 04:12:47;;;;;;;33.83;15.40;;;13.00;97.90;;;;;;5068113;28;20649;-75
2021/10/05 04:15:13;;;;;;;27.47;12.93;;;13.00;97.80;;;;;;5069316;28;20183;-74
2021/10/05 04:17:39;;;;;;;23.03;11.03;;;13.00;97.80;;;;;;5074154;28;20551;-76
2021/10/05 04:20:06;;;;;;;22.37;11.67;;;13.00;97.90;;;;;;5063033;28;20558;-74
2021/10/05 04:22:32;;;;;;;22.03;11.17;;;13.10;97.80;;;;;;5071913;28;20231;-75
2021/10/05 04:24:58;;;;;;;25.57;11.73;;;13.10;97.80;;;;;;5073643;28;20528;-75
2021/10/05 04:27:23;;;;;;;26.63;12.40;;;13.00;97.70;;;;;;5074349;28;20536;-75
2021/10/05 04:29:50;;;;;;;21.07;11.90;;;13.00;97.70;;;;;;5072494;28;20286;-76
2021/10/05 04:32:16;;;;;;;23.77;11.20;;;13.00;97.70;;;;;;5068417;28;20229;-75
2021/10/05 04:34:43;;;;;;;20.33;10.77;;;13.00;97.50;;;;;;5072201;28;20928;-75
2021/10/05 04:37:09;;;;;;;23.07;11.23;;;13.10;97.60;;;;;;5073282;28;20505;-75
2021/10/05 04:39:35;;;;;;;19.57;9.47;;;13.10;97.50;;;;;;5071601;28;20472;-75
2021/10/05 04:42:02;;;;;;;22.37;10.73;;;13.10;97.50;;;;;;5072609;28;20466;-76
2021/10/05 04:44:28;;;;;;;24.63;11.10;;;13.10;97.40;;;;;;5072047;28;20421;-75
2021/10/05 04:46:54;;;;;;;22.47;11.17;;;13.10;97.40;;;;;;5072969;28;20418;-76
2021/10/05 04:49:20;;;;;;;21.07;10.80;;;13.20;97.50;;;;;;5070408;28;20851;-75
2021/10/05 04:51:46;;;;;;;25.13;11.63;;;13.20;97.60;;;;;;5066908;28;20196;-73
2021/10/05 04:54:11;;;;;;;23.20;11.60;;;13.20;97.60;;;;;;5075787;28;20712;-75
2021/10/05 04:56:38;;;;;;;20.60;10.47;;;13.20;97.60;;;;;;5078593;28;20437;-73
2021/10/05 04:59:04;;;;;;;23.30;10.40;;;13.20;97.60;;;;;;5075176;28;20253;-73
2021/10/05 05:01:30;;;;;;;21.70;10.77;;;13.20;97.50;;;;;;5075949;28;20493;-73
2021/10/05 05:03:55;;;;;;;17.23;8.83;;;13.10;97.50;;;;;;5073993;28;20464;-76
2021/10/05 05:06:21;;;;;;;24.77;11.03;;;13.10;97.40;;;;;;5075769;28;20418;-72
2021/10/05 05:08:47;;;;;;;19.67;9.53;;;13.10;97.20;;;;;;5072864;28;20203;-73
2021/10/05 05:11:12;;;;;;;20.57;9.60;;;13.10;97.30;;;;;;5073816;28;20187;-73
2021/10/05 05:13:38;;;;;;;17.60;8.63;;;13.10;97.10;;;;;;5074370;28;20721;-75
2021/10/05 05:16:04;;;;;;;21.80;10.93;;;13.20;97.00;;;;;;5075861;28;20226;-75
2021/10/05 05:18:30;;;;;;;22.83;10.40;;;13.20;96.90;;;;;;5072120;28;20550;-75
2021/10/05 05:20:56;;;;;;;19.23;9.67;;;13.20;97.00;;;;;;5066278;28;20422;-74
2021/10/05 05:23:21;;;;;;;21.37;10.80;;;13.20;97.10;;;;;;5060485;28;20239;-74
2021/10/05 05:25:47;;;;;;;21.20;10.20;;;13.20;97.00;;;;;;5066848;28;20183;-76
2021/10/05 05:28:14;;;;;;;20.00;9.00;;;13.10;97.10;;;;;;5073376;28;20190;-74
2021/10/05 05:30:40;;;;;;;24.43;9.67;;;13.20;97.20;;;;;;5074774;28;20204;-75
2021/10/05 05:33:06;;;;;;;26.20;11.57;;;13.20;97.20;;;;;;5075040;28;20418;-73
2021/10/05 05:35:32;;;;;;;26.90;11.50;;;13.20;97.20;;;;;;5073066;28;20424;-75
2021/10/05 05:37:58;;;;;;;18.17;9.70;;;13.10;97.30;;;;;;5072955;28;20215;-74
2021/10/05 05:40:25;;;;;;;19.23;10.50;;;13.20;97.40;;;;;;5064227;28;20465;-75
2021/10/05 05:42:51;;;;;;;20.40;9.97;;;13.20;97.30;;;;;;5071479;28;20465;-75
2021/10/05 05:45:17;;;;;;;25.07;11.83;;;13.20;97.30;;;;;;5070343;28;20839;-74
2021/10/05 05:47:42;;;;;;;22.70;10.30;;;13.20;97.20;;;;;;5066314;28;20176;-75
2021/10/05 05:50:09;;;;;;;20.10;10.10;;;13.30;96.90;;;;;;5069096;28;20873;-76
2021/10/05 05:52:35;;;;;;;21.23;9.67;;;13.20;96.70;;;;;;5066603;28;20233;-74
2021/10/05 05:55:03;;;;;;;21.83;10.17;;;13.10;96.80;;;;;;5074603;28;20429;-76
2021/10/05 05:57:29;;;;;;;17.80;9.60;;;13.10;96.60;;;;;;5066285;28;20437;-74
2021/10/05 05:59:54;;;;;;;18.43;9.27;;;13.10;96.60;;;;;;5073251;28;20434;-74
2021/10/05 06:02:20;;;;;;;19.57;9.03;;;13.10;96.60;;;;;;5064919;28;20462;-74
2021/10/05 06:04:46;;;;;;;20.13;9.40;;;13.10;96.70;;;;;;5072601;28;20180;-76
2021/10/05 06:07:12;;;;;;;20.70;10.40;;;13.20;97.00;;;;;;5072089;28;20200;-74
2021/10/05 06:09:38;;;;;;;23.50;10.63;;;13.20;96.90;;;;;;5072684;28;20208;-75
2021/10/05 06:12:07;;;;;;;22.80;10.77;;;13.10;96.90;;;;;;5071336;28;20841;-76
2021/10/05 06:14:36;;;;;;;17.87;8.93;;;13.10;96.90;;;;;;5070005;28;20844;-76
2021/10/05 06:17:04;;;;;;;29.23;14.03;;;13.10;96.90;;;;;;5071158;28;20434;-76
2021/10/05 06:19:30;;;;;;;17.37;8.53;;;13.10;96.70;;;;;;5070519;28;20851;-76
2021/10/05 06:21:56;;;;;;;22.60;10.23;;;13.10;96.60;;;;;;5070643;28;20496;-76
2021/10/05 06:24:22;;;;;;;17.53;7.50;;;13.10;96.60;;;;;;5070592;28;20859;-76
2021/10/05 06:26:48;;;;;;;16.50;9.07;;;13.20;96.70;;;;;;5070699;28;20512;-75
2021/10/05 06:29:14;;;;;;;17.23;8.50;;;13.30;96.40;;;;;;5070528;28;20284;-76
2021/10/05 06:31:39;;;;;;;14.20;7.90;;;13.30;96.10;;;;;;5069471;28;20526;-76
2021/10/05 06:34:05;;;;;;;19.87;8.50;;;13.40;96.00;;;;;;5068767;28;20217;-76
2021/10/05 06:36:31;;;;;;;14.30;7.77;;;13.40;95.90;;;;;;5070886;28;20183;-75
2021/10/05 06:38:58;;;;;;;18.30;7.77;;;13.40;95.90;;;;;;5070512;28;20239;-76
2021/10/05 06:41:24;;;;;;;16.20;7.83;;;13.30;96.00;;;;;;5069906;28;20295;-76
2021/10/05 06:43:50;;;;;;;14.13;7.07;;;13.30;95.90;;;;;;5063868;28;20438;-76
2021/10/05 06:46:16;;;;;;;17.30;7.97;;;13.30;96.00;;;;;;5059081;28;20857;-75
2021/10/05 06:48:41;;;;;;;17.27;8.43;;;13.30;96.20;;;;;;5070604;28;20208;-75
2021/10/05 06:51:07;;;;;;;17.40;6.93;;;13.20;96.30;;;;;;5070677;28;20275;-76
2021/10/05 06:53:33;;;;;;;15.30;8.30;;;13.10;96.40;;;;;;5070381;28;20188;-76
2021/10/05 06:55:59;;;;;;;21.40;9.23;;;13.10;96.40;;;;;;5070385;28;20422;-76
2021/10/05 06:58:25;;;;;;;18.87;8.43;;;13.10;96.40;;;;;;5070531;28;20418;-76
2021/10/05 07:00:50;;;;;;;15.40;7.97;;;13.10;96.50;;;;;;5066957;28;20195;-76
2021/10/05 07:03:17;;;;;;;16.03;7.03;;;13.10;96.70;;;;;;5068511;28;20642;-75
2021/10/05 07:05:44;;;;;;;18.00;7.27;;;13.20;96.60;;;;;;5058717;28;20177;-76
2021/10/05 07:08:10;;;;;;;12.83;6.50;;;13.30;96.40;;;;;;5070327;28;20798;-76
2021/10/05 07:10:37;;;;;;;13.27;5.97;;;13.30;96.10;;;;;;5070458;28;20441;-76
2021/10/05 07:13:03;;;;;;;12.33;6.17;;;13.30;95.80;;;;;;5070433;28;20476;-76
2021/10/05 07:15:29;;;;;;;20.13;7.37;;;13.40;95.50;;;;;;5070101;28;20425;-76
2021/10/05 07:17:56;;;;;;;12.53;5.97;;;13.40;95.40;;;;;;5068804;28;20465;-75
2021/10/05 07:20:22;;;;;;;11.90;6.30;;;13.50;95.10;;;;;;5057525;28;20450;-75
2021/10/05 07:22:48;;;;;;;14.87;7.50;;;13.50;95.10;;;;;;5068856;28;20477;-76
2021/10/05 07:25:14;;;;;;;15.57;6.70;;;13.60;95.30;;;;;;5068689;28;20418;-77
2021/10/05 07:27:45;;;;;;;10.40;5.80;;;13.60;94.60;;;;;;5064252;28;20430;-76
2021/10/05 07:30:11;;;;;;;10.37;5.13;;;13.70;94.40;;;;;;5068962;28;20442;-75
2021/10/05 07:32:37;;;;;;;11.80;5.73;;;13.70;94.10;;;;;;5069108;28;20513;-76
2021/10/05 07:35:03;;;;;;;12.80;6.07;;;13.70;93.60;;;;;;5072179;28;20487;-76
2021/10/05 07:37:29;;;;;;;11.23;5.73;;;13.80;93.60;;;;;;5071946;28;20195;-76
2021/10/05 07:39:57;;;;;;;14.20;6.03;;;13.90;93.30;;;;;;5063310;28;20451;-76
2021/10/05 07:42:23;;;;;;;10.70;5.60;;;13.90;93.10;;;;;;5065175;28;20468;-76
2021/10/05 07:44:49;;;;;;;13.03;6.10;;;14.00;93.30;;;;;;5063879;28;20505;-76
2021/10/05 07:47:16;;;;;;;12.77;6.13;;;14.00;93.50;;;;;;5069052;28;20414;-76
2021/10/05 07:49:42;;;;;;;13.13;6.27;;;14.20;93.50;;;;;;5070068;28;20441;-76
2021/10/05 07:52:08;;;;;;;14.87;7.07;;;14.30;93.50;;;;;;5068782;28;20503;-77
2021/10/05 07:54:33;;;;;;;12.00;7.00;;;14.40;93.50;;;;;;5070008;28;20913;-76
2021/10/05 07:56:59;;;;;;;13.50;6.97;;;14.30;92.20;;;;;;5070021;28;20267;-76
2021/10/05 07:59:25;;;;;;;12.60;6.90;;;14.20;92.10;;;;;;5059469;28;20204;-75
2021/10/05 08:01:51;;;;;;;12.40;6.60;;;14.20;92.40;;;;;;5070641;28;20215;-76
2021/10/05 08:04:18;;;;;;;10.77;6.20;;;14.20;92.30;;;;;;5068607;28;20230;-76
2021/10/05 08:06:44;;;;;;;12.23;6.30;;;14.30;92.30;;;;;;5071195;28;21128;-75
2021/10/05 08:09:12;;;;;;;9.03;5.00;;;14.20;91.80;;;;;;5073064;28;20469;-75
2021/10/05 08:11:38;;;;;;;13.40;7.23;;;14.20;91.60;;;;;;5075394;28;20430;-75
2021/10/05 08:14:04;;;;;;;12.97;6.37;;;14.20;91.60;;;;;;5073911;28;20425;-75
2021/10/05 08:16:33;;;;;;;14.30;6.90;;;14.10;92.00;;;;;;5074616;28;20658;-75
2021/10/05 08:18:59;;;;;;;16.17;8.37;;;14.00;92.30;;;;;;5065183;28;20451;-76
2021/10/05 08:21:26;;;;;;;12.83;7.57;;;13.80;92.70;;;;;;5061164;28;20462;-76
2021/10/05 08:23:52;;;;;;;20.03;9.03;;;13.70;93.10;;;;;;5065999;28;20426;-76
2021/10/05 08:26:22;;;;;;;22.83;8.40;;;13.70;93.60;;;;;;5070686;28;20446;-76
2021/10/05 08:28:48;;;;;;;18.50;9.07;;;13.70;93.60;;;;;;5065871;28;20447;-75
2021/10/05 08:31:16;;;;;;;16.70;8.23;;;13.80;93.50;;;;;;5071073;28;20920;-76
2021/10/05 08:33:42;;;;;;;15.57;8.60;;;13.90;93.60;;;;;;5073623;28;20422;-76
2021/10/05 08:36:07;;;;;;;13.50;7.00;;;13.90;93.20;;;;;;5073350;28;20436;-76
2021/10/05 08:38:34;;;;;;;15.77;7.37;;;13.80;93.30;;;;;;5071988;28;20227;-75
2021/10/05 08:41:03;;;;;;;14.13;7.00;;;13.90;93.30;;;;;;5072952;28;20188;-75
2021/10/05 08:43:29;;;;;;;10.60;5.93;;;14.00;93.50;;;;;;5064045;28;20419;-75
2021/10/05 08:45:57;;;;;;;11.43;5.90;;;14.10;93.00;;;;;;5072496;28;20472;-75
2021/10/05 08:48:36;;;;;;;10.87;5.33;;;14.30;92.90;;;;;;5072798;28;20414;-75
2021/10/05 08:51:05;;;;;;;10.97;5.50;;;14.40;92.00;;;;;;5072365;28;20428;-76
2021/10/05 08:53:37;;;;;;;11.20;5.40;;;14.40;91.50;;;;;;5051703;28;21087;-76
2021/10/05 08:56:06;;;;;;;8.90;5.47;;;14.50;91.70;;;;;;5069243;28;20410;-75
2021/10/05 08:58:31;;;;;;;7.03;4.40;;;14.50;91.90;;;;;;5061413;28;20486;-75
2021/10/05 09:01:13;;;;;;;7.30;4.57;;;14.60;91.50;;;;;;5072747;28;20953;-76
2021/10/05 09:03:54;;;;;;;12.27;5.00;;;14.60;91.40;;;;;;5068991;28;20177;-76
2021/10/05 09:06:23;;;;;;;9.90;4.47;;;14.50;91.10;;;;;;5068011;28;20978;-76
2021/10/05 09:08:51;;;;;;;5.80;3.70;;;14.50;91.20;;;;;;5072403;28;20499;-76
2021/10/05 09:11:20;;;;;;;8.10;4.50;;;14.50;91.30;;;;;;5072263;28;20428;-75
2021/10/05 09:13:50;;;;;;;6.40;4.33;;;14.40;91.60;;;;;;5064718;28;20434;-75
2021/10/05 09:16:25;;;;;;;7.90;4.10;;;14.40;91.80;;;;;;5064722;28;20540;-75
2021/10/05 09:19:15;;;;;;;6.40;3.57;;;14.50;91.90;;;;;;5063782;28;20536;-75
2021/10/05 09:21:52;;;;;;;11.77;4.40;;;14.80;91.60;;;;;;5063308;28;20977;-75
2021/10/05 09:24:25;;;;;;;6.80;4.00;;;14.80;90.60;;;;;;5072313;28;20437;-75
2021/10/05 09:26:56;;;;;;;9.30;4.77;;;14.90;90.30;;;;;;5072252;28;20426;-74
2021/10/05 09:29:24;;;;;;;10.10;5.07;;;15.00;90.40;;;;;;5072045;28;20445;-75
2021/10/05 09:32:01;;;;;;;11.33;4.30;;;14.90;90.50;;;;;;5071687;28;20444;-76
2021/10/05 09:34:58;;;;;;;15.20;5.43;;;14.90;90.60;;;;;;5071185;28;20425;-75
2021/10/05 09:37:34;;;;;;;7.00;4.03;;;15.00;90.70;;;;;;5066846;28;21010;-75
2021/10/05 09:40:13;;;;;;;7.73;4.17;;;15.00;90.40;;;;;;5074095;28;20495;-75
2021/10/05 09:42:40;;;;;;;9.20;3.80;;;15.10;90.30;;;;;;5073111;28;20493;-75
2021/10/05 09:45:07;;;;;;;8.30;4.63;;;15.20;90.00;;;;;;5064344;28;20772;-76
2021/10/05 09:47:38;;;;;;;27.20;7.47;;;15.30;89.60;;;;;;5070212;28;20499;-75
2021/10/05 09:50:08;;;;;;;6.87;4.23;;;15.30;88.30;;;;;;5068472;28;20442;-75
2021/10/05 09:52:48;;;;;;;45.47;11.97;;;15.20;87.70;;;;;;5072053;28;20545;-75
2021/10/05 09:55:17;;;;;;;9.70;4.90;;;15.10;88.70;;;;;;5072197;28;20465;-75
2021/10/05 09:57:44;;;;;;;7.90;4.33;;;15.20;89.50;;;;;;5068090;28;20423;-76
2021/10/05 10:00:10;;;;;;;9.70;4.30;;;15.20;89.20;;;;;;5069202;28;20449;-75
2021/10/05 10:02:38;;;;;;;11.33;5.23;;;15.20;89.00;;;;;;5071579;28;20461;-76
2021/10/05 10:05:09;;;;;;;9.80;4.80;;;15.40;89.20;;;;;;5070703;28;20440;-75
2021/10/05 10:07:40;;;;;;;11.47;4.47;;;15.70;88.60;;;;;;5069775;28;20434;-76
2021/10/05 10:10:10;;;;;;;9.10;4.67;;;15.90;88.10;;;;;;5069670;28;20459;-75
2021/10/05 10:12:38;;;;;;;7.17;3.80;;;16.10;87.70;;;;;;5068896;28;20445;-75
2021/10/05 10:15:07;;;;;;;5.90;3.50;;;16.30;87.00;;;;;;5068870;28;20842;-76
2021/10/05 10:17:33;;;;;;;6.53;3.27;;;16.30;86.20;;;;;;5071056;28;20433;-76
2021/10/05 10:19:59;;;;;;;10.20;3.90;;;16.20;85.50;;;;;;5070814;28;20442;-76
2021/10/05 10:22:25;;;;;;;5.30;3.50;;;16.10;85.70;;;;;;5070319;28;20642;-77
2021/10/05 10:24:58;;;;;;;7.33;4.53;;;16.00;86.50;;;;;;5069015;28;20420;-75
2021/10/05 10:27:25;;;;;;;5.87;3.13;;;16.10;86.50;;;;;;5070642;28;20186;-76
2021/10/05 10:29:53;;;;;;;7.90;3.67;;;16.20;86.00;;;;;;5070511;28;20973;-75
2021/10/05 10:32:26;;;;;;;5.93;3.07;;;16.30;85.50;;;;;;5068833;28;20936;-76
2021/10/05 10:35:07;;;;;;;9.97;3.73;;;16.50;85.30;;;;;;5070091;28;20506;-76
2021/10/05 10:37:47;;;;;;;9.80;4.03;;;16.70;84.40;;;;;;5069137;28;20506;-75
2021/10/05 10:40:15;;;;;;;5.30;3.33;;;16.40;83.80;;;;;;5069339;28;20982;-76
2021/10/05 10:42:41;;;;;;;7.90;3.10;;;16.30;84.70;;;;;;5069516;28;20508;-76
2021/10/05 10:45:18;;;;;;;5.57;2.97;;;16.30;85.60;;;;;;5062809;28;20425;-75
2021/10/05 10:47:45;;;;;;;4.87;3.03;;;16.30;85.60;;;;;;5066749;28;20950;-76
2021/10/05 10:50:14;;;;;;;3.67;2.77;;;16.30;86.50;;;;;;5076219;28;20438;-76
2021/10/05 10:52:45;;;;;;;5.43;3.47;;;16.30;85.90;;;;;;5072414;28;20810;-75
2021/10/05 10:55:15;;;;;;;6.23;3.27;;;16.50;86.20;;;;;;5073501;28;20431;-79
2021/10/05 10:58:01;;;;;;;4.67;3.10;;;16.60;84.40;;;;;;5074183;28;20422;-76
2021/10/05 11:00:32;;;;;;;5.30;3.27;;;16.60;85.50;;;;;;5073846;28;20781;-75
2021/10/05 11:03:03;;;;;;;5.90;2.97;;;16.20;86.50;;;;;;5070948;28;20458;-75
2021/10/05 11:05:35;;;;;;;13.33;5.13;;;16.10;87.00;;;;;;5074622;28;20422;-76
2021/10/05 11:08:11;;;;;;;7.03;3.50;;;16.10;87.10;;;;;;5073217;28;21216;-77
2021/10/05 11:10:38;;;;;;;4.70;3.13;;;16.00;87.30;;;;;;5066985;28;20411;-78
2021/10/05 11:13:06;;;;;;;6.20;3.40;;;16.00;87.30;;;;;;5064880;28;20935;-74
2021/10/05 11:15:40;;;;;;;5.33;2.77;;;16.00;88.40;;;;;;5062852;28;21000;-76
2021/10/05 11:18:07;;;;;;;5.53;3.17;;;15.80;88.40;;;;;;5076444;28;20440;-75
2021/10/05 11:20:38;;;;;;;3.10;2.33;;;15.80;89.00;;;;;;5077826;28;20793;-75
2021/10/05 11:23:04;;;;;;;3.20;2.47;;;16.00;89.20;;;;;;5080828;28;20548;-75
2021/10/05 11:25:31;;;;;;;5.43;2.70;;;16.10;88.40;;;;;;5075000;28;20511;-75
2021/10/05 11:28:09;;;;;;;6.50;3.20;;;16.20;87.70;;;;;;5075822;28;20793;-76
2021/10/05 11:30:50;;;;;;;7.77;2.80;;;16.40;86.90;;;;;;5085763;28;20446;-73
2021/10/05 11:33:27;;;;;;;7.50;2.73;;;16.50;86.50;;;;;;5086356;28;20437;-75
2021/10/05 11:35:55;;;;;;;3.83;2.60;;;16.50;86.80;;;;;;5074495;28;20421;-75
2021/10/05 11:38:21;;;;;;;4.80;2.30;;;16.50;86.20;;;;;;5077110;28;20444;-78
2021/10/05 11:40:55;;;;;;;3.77;1.97;;;16.70;85.30;;;;;;5077933;28;21073;-75
2021/10/05 11:43:35;;;;;;;2.90;2.27;;;16.90;84.70;;;;;;5079945;28;20427;-77
2021/10/05 11:46:14;;;;;;;3.03;1.80;;;17.00;83.80;;;;;;5072182;28;20405;-75
2021/10/05 11:48:51;;;;;;;7.80;2.53;;;17.00;83.70;;;;;;5079787;28;20445;-74
2021/10/05 11:51:19;;;;;;;2.90;2.20;;;17.00;83.30;;;;;;5078102;28;20429;-77
2021/10/05 11:53:46;;;;;;;13.83;3.47;;;17.00;83.60;;;;;;5080855;28;20414;-76
2021/10/05 11:56:15;;;;;;;3.27;2.00;;;16.90;83.80;;;;;;5080407;28;20426;-76
2021/10/05 11:58:53;;;;;;;2.90;1.60;;;16.90;83.70;;;;;;5079197;28;20531;-75
2021/10/05 12:01:25;;;;;;;7.10;2.40;;;16.60;84.10;;;;;;5079837;28;20514;-74
2021/10/05 12:03:53;;;;;;;3.50;2.00;;;16.50;85.00;;;;;;5080051;28;20957;-77
2021/10/05 12:06:31;;;;;;;8.83;2.47;;;16.50;84.90;;;;;;5078434;28;20493;-75
2021/10/05 12:08:58;;;;;;;5.40;2.37;;;16.70;84.90;;;;;;5073710;28;20459;-76
2021/10/05 12:11:44;;;;;;;2.70;1.80;;;16.80;83.60;;;;;;5071582;28;20499;-76
2021/10/05 12:14:11;;;;;;;3.80;1.97;;;16.80;83.10;;;;;;5072647;28;20920;-75
2021/10/05 12:16:39;;;;;;;5.93;1.67;;;16.90;83.80;;;;;;5071604;28;20438;-75
2021/10/05 12:19:05;;;;;;;5.00;1.70;;;17.00;83.00;;;;;;5073343;28;20560;-75
2021/10/05 12:21:31;;;;;;;2.17;1.50;;;16.90;82.40;;;;;;5072560;28;20473;-75
2021/10/05 12:23:59;;;;;;;2.50;1.60;;;16.90;82.10;;;;;;5072908;28;20195;-75
2021/10/05 12:26:25;;;;;;;1.87;1.20;;;16.90;81.20;;;;;;5072864;28;20517;-76
2021/10/05 12:28:57;;;;;;;2.60;1.80;;;16.90;80.30;;;;;;5073742;28;20501;-75
2021/10/05 12:31:27;;;;;;;4.50;1.60;;;16.80;81.20;;;;;;5073889;28;20928;-76
2021/10/05 12:33:58;;;;;;;3.43;1.57;;;16.70;81.70;;;;;;5073108;28;20909;-75
2021/10/05 12:36:24;;;;;;;2.00;1.53;;;16.60;83.10;;;;;;5073613;28;20453;-75
2021/10/05 12:38:50;;;;;;;2.20;1.73;;;16.70;83.10;;;;;;5074703;28;20998;-77